Time;durP1;ratioP1;P1;durP2;ratioP2;P2;SDS_P1;SDS_P2;PMS_P1;PMS_P2;Temp;Humidity;BMP_temperature;BMP_pressure;BME280_temperature;BME280_humidity;BME280_pressure;Samples;Min_cycle;Max_cycle;Signal;HPM_P1;HPM_P2
2022/08/09 00:01:40;;;;;;;3.47;3.28;;;;;;;21.37;55.34;64211.78;4945467;29;20225;-79
2022/08/09 00:04:07;;;;;;;7.80;3.42;;;;;;;21.34;56.08;64210.72;4947293;29;20240;-78
2022/08/09 00:06:34;;;;;;;4.18;3.60;;;;;;;21.28;56.19;64207.03;4948099;29;20204;-78
2022/08/09 00:09:01;;;;;;;3.83;3.53;;;;;;;21.16;56.70;64189.84;4948192;29;20564;-78
2022/08/09 00:11:29;;;;;;;3.72;3.42;;;;;;;21.10;56.78;64181.00;4945307;29;20228;-78
2022/08/09 00:13:56;;;;;;;4.10;3.80;;;;;;;21.09;57.37;64182.03;4947262;29;20355;-78
2022/08/09 00:16:23;;;;;;;3.38;3.15;;;;;;;21.06;57.61;64173.69;4946805;29;20382;-78
2022/08/09 00:18:50;;;;;;;6.03;3.15;;;;;;;21.08;57.15;64186.16;4944965;29;20221;-77
2022/08/09 00:21:17;;;;;;;5.90;4.05;;;;;;;21.01;57.55;64171.06;4946525;29;20208;-78
2022/08/09 00:23:44;;;;;;;3.83;3.28;;;;;;;20.97;57.89;64169.47;4947623;29;20227;-78
2022/08/09 00:26:11;;;;;;;3.53;3.33;;;;;;;20.93;58.01;64163.25;4946628;29;20237;-77
2022/08/09 00:28:39;;;;;;;7.68;3.42;;;;;;;20.97;58.25;64175.16;4942470;29;20225;-78
2022/08/09 00:31:07;;;;;;;3.67;3.25;;;;;;;21.03;57.88;64178.88;4948147;29;20200;-77
2022/08/09 00:33:34;;;;;;;4.82;3.20;;;;;;;20.99;58.29;64166.41;4947853;29;20224;-79
2022/08/09 00:36:02;;;;;;;3.20;2.92;;;;;;;20.85;59.29;64159.53;4948422;29;20204;-77
2022/08/09 00:38:29;;;;;;;3.75;3.45;;;;;;;20.81;59.44;64153.28;4944428;29;20448;-78
2022/08/09 00:40:56;;;;;;;4.18;3.60;;;;;;;20.84;59.40;64155.91;4951031;29;20197;-78
2022/08/09 00:43:23;;;;;;;3.13;2.92;;;;;;;20.82;59.96;64156.41;4951759;29;20223;-77
2022/08/09 00:45:51;;;;;;;3.60;3.40;;;;;;;20.87;60.06;64153.84;4945005;29;20239;-78
2022/08/09 00:48:18;;;;;;;4.05;3.08;;;;;;;20.93;60.35;64165.28;4943581;29;20225;-79
2022/08/09 00:50:45;;;;;;;4.05;3.38;;;;;;;20.93;60.42;64165.28;4945757;29;20204;-79
2022/08/09 00:53:13;;;;;;;3.47;3.17;;;;;;;21.01;59.65;64176.25;4946888;29;20235;-78
2022/08/09 00:55:40;;;;;;;3.75;3.55;;;;;;;20.97;59.52;64170.00;4942894;29;20215;-78
2022/08/09 00:58:07;;;;;;;4.45;3.88;;;;;;;21.05;59.83;64178.38;4949423;29;20203;-78
2022/08/09 01:00:36;;;;;;;4.18;3.65;;;;;;;21.14;60.15;64187.75;4947112;29;20213;-77
2022/08/09 01:03:14;;;;;;;3.67;3.38;;;;;;;21.09;60.22;64182.03;4942311;29;20213;-78
2022/08/09 01:05:50;;;;;;;5.10;3.45;;;;;;;21.18;60.39;64197.13;4940271;29;20297;-78
2022/08/09 01:08:26;;;;;;;3.65;3.45;;;;;;;21.24;60.38;64200.81;4946664;29;20428;-78
2022/08/09 01:11:04;;;;;;;3.67;3.38;;;;;;;21.27;61.79;64200.81;4941134;29;20231;-77
2022/08/09 01:13:40;;;;;;;3.42;3.13;;;;;;;21.25;61.36;64201.84;4931037;29;20225;-78
2022/08/09 01:16:10;;;;;;;3.75;3.45;;;;;;;21.34;60.67;64210.72;4946212;29;20238;-78
2022/08/09 01:18:43;;;;;;;4.05;3.75;;;;;;;21.36;60.91;64215.41;4946622;29;20242;-78
2022/08/09 01:21:20;;;;;;;3.10;2.95;;;;;;;21.35;62.60;64207.09;4940036;29;20196;-78
2022/08/09 01:24:00;;;;;;;3.83;3.50;;;;;;;21.38;62.40;64212.81;4944040;29;20224;-79
2022/08/09 01:26:52;;;;;;;3.85;3.63;;;;;;;21.37;62.02;64214.38;4945562;29;20223;-78
2022/08/09 01:29:28;;;;;;;5.43;4.03;;;;;;;21.37;61.68;64213.84;4939462;29;20228;-79
2022/08/09 01:31:59;;;;;;;4.25;3.85;;;;;;;21.43;61.34;64222.72;4930349;29;20279;-77
2022/08/09 01:34:28;;;;;;;3.50;3.35;;;;;;;21.46;61.38;64221.19;4946120;29;20409;-78
2022/08/09 01:36:57;;;;;;;5.60;3.60;;;;;;;21.54;60.53;64229.00;4945438;29;20371;-77
2022/08/09 01:39:26;;;;;;;3.67;3.47;;;;;;;21.54;60.10;64226.41;4945799;29;20600;-77
2022/08/09 01:41:56;;;;;;;5.05;3.47;;;;;;;21.58;60.75;64235.78;4942517;29;20372;-77
2022/08/09 01:44:25;;;;;;;3.83;3.63;;;;;;;21.59;60.88;64236.81;4945113;29;20217;-78
2022/08/09 01:46:52;;;;;;;3.67;3.38;;;;;;;21.51;62.08;64229.00;4945537;29;20212;-78
2022/08/09 01:49:21;;;;;;;3.25;3.15;;;;;;;21.47;64.21;64227.41;4945381;29;20213;-79
2022/08/09 01:51:52;;;;;;;3.75;3.42;;;;;;;21.55;64.18;64225.41;4944591;29;20213;-78
2022/08/09 01:54:21;;;;;;;4.15;3.70;;;;;;;21.61;64.91;64236.84;4947694;29;20221;-78
2022/08/09 01:56:50;;;;;;;4.05;3.78;;;;;;;21.49;66.79;64223.78;4947537;29;20205;-77
2022/08/09 01:59:21;;;;;;;5.05;4.55;;;;;;;21.37;67.99;64211.78;4944213;29;20252;-79
2022/08/09 02:01:52;;;;;;;4.95;4.45;;;;;;;21.37;66.87;64216.97;4949598;29;20220;-77
2022/08/09 02:04:20;;;;;;;4.07;3.78;;;;;;;21.36;68.03;64208.16;4949332;29;20221;-77
2022/08/09 02:07:10;;;;;;;5.97;3.72;;;;;;;21.33;67.77;64207.59;4948641;29;20460;-78
2022/08/09 02:09:41;;;;;;;4.25;3.95;;;;;;;21.34;68.34;64211.25;4948696;29;20254;-78
2022/08/09 02:12:10;;;;;;;5.75;4.40;;;;;;;21.42;67.71;64211.28;4949478;29;20516;-77
2022/08/09 02:14:42;;;;;;;4.30;3.95;;;;;;;21.51;64.72;64226.41;4949137;29;20225;-78
2022/08/09 02:17:10;;;;;;;5.13;4.38;;;;;;;21.54;64.01;64229.00;4946728;29;20235;-78
2022/08/09 02:19:38;;;;;;;4.05;3.75;;;;;;;21.52;63.89;64227.44;4948944;29;20227;-77
2022/08/09 02:22:13;;;;;;;4.45;4.05;;;;;;;21.69;61.65;64245.22;4951246;29;20252;-78
2022/08/09 02:24:45;;;;;;;6.40;3.80;;;;;;;21.66;62.54;64236.91;4949084;29;20220;-79
2022/08/09 02:27:16;;;;;;;4.18;3.90;;;;;;;21.61;61.99;64236.84;4947811;29;20496;-77
2022/08/09 02:29:50;;;;;;;5.97;3.78;;;;;;;21.51;64.58;64226.41;4947822;29;20225;-78
2022/08/09 02:32:19;;;;;;;4.30;4.00;;;;;;;21.23;69.63;64196.63;4948314;29;20201;-78
2022/08/09 02:34:49;;;;;;;5.20;4.53;;;;;;;21.12;71.27;64187.75;4947432;29;20257;-79
2022/08/09 02:37:20;;;;;;;5.00;3.83;;;;;;;21.14;71.10;64187.25;4949353;29;20264;-79
2022/08/09 02:39:53;;;;;;;4.40;4.03;;;;;;;21.15;71.54;64190.88;4947459;29;20224;-78
2022/08/09 02:42:27;;;;;;;4.90;4.07;;;;;;;21.21;71.21;64192.47;4949101;29;20203;-78
2022/08/09 02:45:01;;;;;;;4.18;3.88;;;;;;;21.13;71.75;64188.78;4942694;29;20251;-77
2022/08/09 02:47:30;;;;;;;5.13;4.82;;;;;;;21.06;71.74;64179.41;4948872;29;20196;-79
2022/08/09 02:50:02;;;;;;;5.80;4.28;;;;;;;21.05;71.11;64180.97;4949665;29;20228;-78
2022/08/09 02:52:34;;;;;;;8.48;4.68;;;;;;;21.09;71.22;64184.63;4948281;29;20280;-78
2022/08/09 02:55:03;;;;;;;7.28;4.82;;;;;;;21.07;70.54;64180.44;4944172;29;20232;-77
2022/08/09 02:57:31;;;;;;;8.45;4.60;;;;;;;21.06;69.96;64176.28;4948766;29;20209;-78
2022/08/09 03:00:02;;;;;;;5.68;4.95;;;;;;;21.07;70.64;64177.84;4947813;29;20264;-78
2022/08/09 03:02:30;;;;;;;5.03;4.60;;;;;;;21.01;72.91;64171.06;4948803;29;20196;-77
2022/08/09 03:04:58;;;;;;;6.47;5.00;;;;;;;20.96;72.54;64165.84;4948077;29;20224;-77
2022/08/09 03:07:26;;;;;;;4.88;4.57;;;;;;;20.94;72.81;64166.34;4948368;29;20201;-79
2022/08/09 03:09:54;;;;;;;5.45;4.40;;;;;;;20.89;74.24;64155.94;4948643;29;20232;-77
2022/08/09 03:12:22;;;;;;;4.78;4.38;;;;;;;20.88;76.69;64155.41;4949373;29;20211;-77
2022/08/09 03:14:49;;;;;;;5.40;4.90;;;;;;;20.80;75.51;64154.81;4948525;29;20300;-76
2022/08/09 03:17:18;;;;;;;10.18;5.57;;;;;;;20.76;74.89;64148.06;4945692;29;20250;-77
2022/08/09 03:19:46;;;;;;;5.00;4.70;;;;;;;20.72;75.45;64143.91;4948962;29;20419;-78
2022/08/09 03:22:14;;;;;;;4.65;4.32;;;;;;;20.59;75.45;64127.72;4948163;29;20219;-78
2022/08/09 03:24:41;;;;;;;6.97;4.30;;;;;;;20.53;73.95;64124.59;4949779;29;20561;-79
2022/08/09 03:27:09;;;;;;;4.35;3.95;;;;;;;20.46;73.17;64116.75;4946064;29;20232;-78
2022/08/09 03:29:38;;;;;;;3.95;3.75;;;;;;;20.35;73.26;64108.38;4948787;29;20247;-79
2022/08/09 03:32:07;;;;;;;4.38;4.07;;;;;;;20.34;73.21;64104.22;4950024;29;20216;-79
2022/08/09 03:34:35;;;;;;;6.65;4.00;;;;;;;20.21;78.39;64093.22;4946948;29;20221;-78
2022/08/09 03:37:03;;;;;;;3.78;3.47;;;;;;;20.07;77.27;64079.13;4946244;29;20287;-77
2022/08/09 03:39:29;;;;;;;4.28;3.72;;;;;;;20.00;76.48;64071.81;4949337;29;20225;-78
2022/08/09 03:41:56;;;;;;;3.88;3.67;;;;;;;19.96;75.67;64067.66;4948066;29;20261;-77
2022/08/09 03:44:24;;;;;;;4.50;3.80;;;;;;;19.87;75.83;64058.28;4946581;29;20229;-78
2022/08/09 03:46:53;;;;;;;4.50;3.75;;;;;;;19.85;75.26;64053.06;4949715;29;20233;-78
2022/08/09 03:49:22;;;;;;;4.05;3.75;;;;;;;19.85;75.01;64053.59;4948511;29;20533;-77
2022/08/09 03:51:57;;;;;;;3.80;3.50;;;;;;;19.81;74.75;64051.50;4947984;29;20738;-77
2022/08/09 03:54:25;;;;;;;3.88;3.47;;;;;;;19.86;73.71;64054.13;4945748;29;20430;-79
2022/08/09 03:56:53;;;;;;;3.80;3.50;;;;;;;19.87;73.63;64058.28;4948051;29;20201;-78
2022/08/09 03:59:20;;;;;;;4.07;3.78;;;;;;;19.90;73.70;64055.69;4945675;29;20216;-78
2022/08/09 04:01:49;;;;;;;6.40;4.03;;;;;;;19.88;73.53;64053.63;4930049;29;20209;-78
2022/08/09 04:04:17;;;;;;;4.90;4.50;;;;;;;19.89;72.49;64052.06;4948080;29;20221;-79
2022/08/09 04:06:43;;;;;;;4.07;3.78;;;;;;;19.96;71.93;64067.66;4948767;29;20517;-78
2022/08/09 04:09:12;;;;;;;4.95;4.47;;;;;;;20.00;71.81;64071.81;4943579;29;20225;-77
2022/08/09 04:11:56;;;;;;;5.65;4.10;;;;;;;20.07;71.31;64073.97;4945106;29;20209;-77
2022/08/09 04:14:23;;;;;;;4.20;4.00;;;;;;;20.18;71.65;64087.53;4947696;29;20220;-77
2022/08/09 04:16:50;;;;;;;4.30;4.00;;;;;;;20.28;70.85;64098.47;4947570;29;20315;-79
2022/08/09 04:19:17;;;;;;;7.15;4.53;;;;;;;20.40;71.46;64108.41;4949135;29;20255;-80
2022/08/09 04:21:45;;;;;;;5.28;3.92;;;;;;;20.50;71.23;64118.84;4946088;29;20260;-78
2022/08/09 04:24:13;;;;;;;5.07;4.57;;;;;;;20.63;71.97;64134.50;4939703;29;20217;-78
2022/08/09 04:26:40;;;;;;;4.70;4.13;;;;;;;20.74;72.86;64148.03;4939128;29;20285;-78
2022/08/09 04:29:07;;;;;;;4.40;4.00;;;;;;;20.86;73.44;64155.41;4939004;29;20213;-78
2022/08/09 04:31:34;;;;;;;5.07;3.83;;;;;;;20.97;73.66;64164.81;4948247;29;20205;-78
2022/08/09 04:34:01;;;;;;;4.22;3.92;;;;;;;21.05;73.95;64175.78;4944912;29;20224;-79
2022/08/09 04:36:29;;;;;;;3.72;3.53;;;;;;;21.14;74.39;64187.75;4947011;29;20211;-79
2022/08/09 04:38:58;;;;;;;5.25;4.43;;;;;;;21.25;74.70;64201.31;4947587;29;20673;-79
2022/08/09 04:41:27;;;;;;;5.82;4.25;;;;;;;21.40;75.35;64212.31;4944779;29;20208;-77
2022/08/09 04:43:54;;;;;;;4.22;3.83;;;;;;;21.54;74.29;64232.13;4948923;29;20228;-78
2022/08/09 04:46:22;;;;;;;5.30;4.82;;;;;;;21.66;73.13;64246.75;4947090;29;20611;-79
2022/08/09 04:48:49;;;;;;;5.20;4.72;;;;;;;21.83;74.09;64256.22;4946073;29;20224;-78
2022/08/09 04:51:16;;;;;;;4.88;4.40;;;;;;;21.90;71.76;64266.66;4943549;29;20205;-77
2022/08/09 04:53:43;;;;;;;5.47;4.97;;;;;;;21.94;70.92;64273.44;4938266;29;20288;-78
2022/08/09 04:56:10;;;;;;;7.97;5.05;;;;;;;21.93;69.50;64274.97;4946607;29;20201;-79
2022/08/09 04:58:38;;;;;;;5.10;4.70;;;;;;;21.96;68.48;64272.94;4947582;29;20244;-77
2022/08/09 05:01:05;;;;;;;4.90;4.43;;;;;;;21.98;69.15;64275.03;4944142;29;20205;-77
2022/08/09 05:03:32;;;;;;;5.03;4.63;;;;;;;22.04;66.60;64278.19;4946388;29;20260;-77
2022/08/09 05:05:59;;;;;;;4.90;4.55;;;;;;;22.03;64.05;64280.25;4945754;29;20244;-77
2022/08/09 05:08:26;;;;;;;5.05;4.68;;;;;;;21.94;65.30;64272.91;4945210;29;20225;-77
2022/08/09 05:10:57;;;;;;;4.85;4.45;;;;;;;22.14;67.46;64294.31;4944465;29;20295;-77
2022/08/09 05:13:24;;;;;;;5.82;5.22;;;;;;;22.11;66.40;64285.47;4947374;29;20225;-79
2022/08/09 05:15:52;;;;;;;6.82;5.35;;;;;;;22.31;66.44;64306.38;4930981;29;20205;-77
2022/08/09 05:18:19;;;;;;;6.38;5.00;;;;;;;22.53;67.18;64335.09;4939488;29;20232;-77
2022/08/09 05:20:46;;;;;;;5.18;4.78;;;;;;;22.45;65.01;64326.72;4946376;29;20205;-77
2022/08/09 05:23:13;;;;;;;7.85;4.35;;;;;;;22.54;66.60;64333.03;4945383;29;20255;-78
2022/08/09 05:25:40;;;;;;;6.00;4.88;;;;;;;22.72;66.30;64352.38;4947225;29;20207;-79
2022/08/09 05:28:07;;;;;;;5.60;4.97;;;;;;;22.80;61.60;64357.63;4945963;29;20223;-78
2022/08/09 05:30:34;;;;;;;11.93;5.40;;;;;;;22.80;63.82;64362.81;4940797;29;20200;-79
2022/08/09 05:33:03;;;;;;;7.43;5.68;;;;;;;22.79;64.51;64356.59;4950148;29;20197;-77
2022/08/09 05:35:30;;;;;;;10.95;5.15;;;;;;;22.76;66.13;64356.56;4950228;29;20501;-78
2022/08/09 05:37:57;;;;;;;12.68;5.43;;;;;;;22.69;68.18;64346.13;4947237;29;20477;-78
2022/08/09 05:40:27;;;;;;;13.13;5.15;;;;;;;22.81;68.42;64363.88;4941437;29;20361;-77
2022/08/09 05:42:54;;;;;;;8.38;5.68;;;;;;;22.77;69.25;64359.69;4950505;29;20200;-78
2022/08/09 05:45:21;;;;;;;6.03;5.43;;;;;;;22.74;69.65;64351.38;4948037;29;20212;-79
2022/08/09 05:47:48;;;;;;;9.95;6.30;;;;;;;22.88;69.44;64374.31;4946499;29;20522;-79
2022/08/09 05:50:16;;;;;;;9.63;5.82;;;;;;;23.11;69.06;64395.25;4951201;29;20224;-78
2022/08/09 05:52:44;;;;;;;6.70;6.07;;;;;;;23.17;68.90;64398.41;4951610;29;20553;-78
2022/08/09 05:55:11;;;;;;;16.67;6.15;;;;;;;23.06;68.33;64384.81;4948185;29;20228;-79
2022/08/09 05:57:38;;;;;;;10.57;6.05;;;;;;;23.27;68.91;64411.97;4946018;29;20512;-77
2022/08/09 06:00:07;;;;;;;7.15;6.47;;;;;;;23.52;65.27;64432.94;4951490;29;20260;-78
2022/08/09 06:02:34;;;;;;;8.98;6.00;;;;;;;23.74;62.96;64463.78;4949794;29;20456;-79
2022/08/09 06:05:01;;;;;;;10.75;6.72;;;;;;;23.91;61.49;64478.97;4950789;29;20221;-78
2022/08/09 06:07:30;;;;;;;9.48;7.32;;;;;;;23.96;61.89;64484.22;4953382;29;20252;-79
2022/08/09 06:10:02;;;;;;;8.65;7.47;;;;;;;24.04;60.32;64494.16;4952034;29;20252;-80
2022/08/09 06:12:29;;;;;;;10.90;7.18;;;;;;;23.95;60.67;64485.75;4951161;29;20382;-79
2022/08/09 06:14:56;;;;;;;14.68;7.20;;;;;;;23.87;59.10;64474.25;4942445;29;20228;-77
2022/08/09 06:17:22;;;;;;;12.52;7.60;;;;;;;23.66;59.26;64450.19;4931026;29;20228;-77
2022/08/09 06:19:49;;;;;;;10.90;7.90;;;;;;;23.65;60.40;64449.16;4929832;29;20217;-78
2022/08/09 06:22:16;;;;;;;10.95;8.02;;;;;;;23.72;62.32;64455.97;4939310;29;20205;-80
2022/08/09 06:24:44;;;;;;;15.93;8.35;;;;;;;23.94;60.89;64478.97;4950847;29;20288;-79
2022/08/09 06:27:12;;;;;;;11.93;8.15;;;;;;;24.05;60.91;64487.38;4951137;29;20460;-80
2022/08/09 06:29:38;;;;;;;15.65;8.48;;;;;;;24.12;60.75;64497.31;4949478;29;20269;-77
2022/08/09 06:32:06;;;;;;;12.15;8.23;;;;;;;24.21;59.65;64504.66;4936074;29;20429;-80
2022/08/09 06:34:33;;;;;;;9.20;8.30;;;;;;;24.39;57.46;64531.31;4932214;29;20242;-81
2022/08/09 06:37:00;;;;;;;12.40;8.63;;;;;;;24.45;56.86;64540.22;4931278;29;20205;-79
2022/08/09 06:39:28;;;;;;;15.27;9.77;;;;;;;24.48;55.96;64535.00;4934310;29;20394;-78
2022/08/09 06:41:57;;;;;;;16.60;11.02;;;;;;;24.47;55.03;64531.88;4949271;29;20490;-78
2022/08/09 06:44:23;;;;;;;15.00;10.70;;;;;;;24.45;56.36;64531.88;4932038;29;20229;-79
2022/08/09 06:46:50;;;;;;;13.48;11.15;;;;;;;24.61;54.85;64551.22;4931171;29;20241;-78
2022/08/09 06:49:17;;;;;;;12.98;11.68;;;;;;;24.70;54.56;64558.06;4937580;29;20242;-78
2022/08/09 06:51:44;;;;;;;14.35;11.68;;;;;;;24.80;52.84;64569.06;4949961;29;20197;-80
2022/08/09 06:54:12;;;;;;;14.05;11.82;;;;;;;25.06;52.89;64600.97;4950444;29;20220;-78
2022/08/09 06:56:39;;;;;;;17.98;12.57;;;;;;;25.08;52.83;64598.38;4949341;29;20386;-77
2022/08/09 06:59:07;;;;;;;17.65;11.60;;;;;;;24.89;51.89;64578.47;4946071;29;20225;-79
2022/08/09 07:01:34;;;;;;;14.70;11.95;;;;;;;24.88;51.51;64576.91;4948780;29;20200;-78
2022/08/09 07:04:00;;;;;;;14.82;10.07;;;;;;;25.06;50.25;64593.69;4948715;29;20424;-79
2022/08/09 07:06:27;;;;;;;14.63;10.73;;;;;;;25.14;51.06;64602.06;4944945;29;20250;-78
2022/08/09 07:08:54;;;;;;;19.92;10.23;;;;;;;25.35;49.21;64623.00;4943744;29;20217;-79
2022/08/09 07:11:21;;;;;;;13.05;8.90;;;;;;;25.52;48.71;64643.97;4947296;29;20489;-78
2022/08/09 07:13:48;;;;;;;8.98;8.10;;;;;;;25.66;48.63;64661.25;4948676;29;20264;-79
2022/08/09 07:16:16;;;;;;;10.40;7.78;;;;;;;25.81;49.22;64674.38;4948146;29;20429;-79
2022/08/09 07:18:43;;;;;;;10.68;7.18;;;;;;;25.96;47.85;64690.09;4947130;29;20231;-78
2022/08/09 07:21:10;;;;;;;9.52;6.65;;;;;;;26.02;47.13;64698.47;4948876;29;20197;-78
2022/08/09 07:23:37;;;;;;;9.18;6.28;;;;;;;26.09;46.16;64706.34;4947401;29;20291;-79
2022/08/09 07:26:04;;;;;;;9.60;5.80;;;;;;;26.06;44.91;64705.81;4937946;29;20213;-79
2022/08/09 07:28:31;;;;;;;7.22;6.55;;;;;;;26.32;45.49;64732.03;4935367;29;20424;-79
2022/08/09 07:30:59;;;;;;;6.72;6.18;;;;;;;26.33;45.22;64727.84;4935881;29;20197;-79
2022/08/09 07:33:27;;;;;;;7.57;6.45;;;;;;;26.30;46.11;64727.31;4943262;29;20296;-78
2022/08/09 07:35:54;;;;;;;8.98;7.28;;;;;;;26.32;44.83;64726.81;4930309;29;20201;-78
2022/08/09 07:38:21;;;;;;;8.02;7.07;;;;;;;26.36;45.15;64734.13;4947745;29;20216;-78
2022/08/09 07:40:48;;;;;;;11.73;7.30;;;;;;;26.57;45.88;64753.00;4948726;29;20205;-79
2022/08/09 07:43:15;;;;;;;6.93;6.25;;;;;;;26.69;44.24;64765.63;4934458;29;20221;-79
2022/08/09 07:45:42;;;;;;;9.48;7.10;;;;;;;26.81;44.34;64780.81;4938775;29;20392;-78
2022/08/09 07:48:11;;;;;;;7.90;5.88;;;;;;;26.96;44.86;64794.47;4947469;29;20291;-79
2022/08/09 07:50:42;;;;;;;6.35;5.38;;;;;;;27.05;43.35;64803.38;4947474;29;20216;-80
2022/08/09 07:53:09;;;;;;;11.48;6.05;;;;;;;27.15;41.87;64816.47;4945544;29;20204;-77
2022/08/09 07:55:36;;;;;;;9.90;5.53;;;;;;;26.71;42.50;64770.34;4945478;29;20209;-79
2022/08/09 07:58:04;;;;;;;6.07;5.57;;;;;;;26.74;43.13;64771.38;4945609;29;20205;-78
2022/08/09 08:00:31;;;;;;;7.35;6.65;;;;;;;26.76;45.10;64772.97;4941811;29;20209;-78
2022/08/09 08:02:58;;;;;;;8.10;7.25;;;;;;;26.85;42.94;64777.69;4948311;29;20318;-77
2022/08/09 08:05:25;;;;;;;6.85;6.10;;;;;;;26.94;41.54;64792.34;4945967;29;20209;-78
2022/08/09 08:07:54;;;;;;;6.78;6.00;;;;;;;27.09;40.32;64812.81;4947088;29;20229;-79
2022/08/09 08:10:22;;;;;;;6.68;5.40;;;;;;;27.27;39.72;64829.59;4946257;29;20244;-78
2022/08/09 08:12:49;;;;;;;6.63;5.68;;;;;;;27.46;40.23;64851.63;4947835;29;20219;-79
2022/08/09 08:15:18;;;;;;;10.35;5.70;;;;;;;27.48;40.88;64848.50;4942583;29;20273;-78
2022/08/09 08:17:46;;;;;;;6.68;5.70;;;;;;;27.35;41.39;64834.34;4946939;29;20201;-77
2022/08/09 08:20:14;;;;;;;6.35;5.13;;;;;;;27.37;41.29;64833.84;4947350;29;20537;-80
2022/08/09 08:22:41;;;;;;;5.25;4.80;;;;;;;27.52;40.90;64857.41;4948537;29;20217;-79
2022/08/09 08:25:10;;;;;;;5.60;5.13;;;;;;;27.72;40.37;64875.78;4935134;29;20221;-77
2022/08/09 08:27:37;;;;;;;7.28;5.45;;;;;;;27.80;39.06;64879.47;4929477;29;20233;-79
2022/08/09 08:30:06;;;;;;;5.43;4.93;;;;;;;27.66;40.74;64864.25;4935659;29;20382;-80
2022/08/09 08:32:33;;;;;;;6.20;4.70;;;;;;;27.62;38.98;64863.19;4928824;29;20206;-78
2022/08/09 08:35:01;;;;;;;8.52;4.45;;;;;;;27.65;39.09;64865.81;4929002;29;20265;-77
2022/08/09 08:37:28;;;;;;;5.60;5.10;;;;;;;27.42;39.53;64842.22;4930577;29;20204;-76
2022/08/09 08:39:55;;;;;;;8.77;4.90;;;;;;;27.33;40.35;64834.84;4930038;29;20233;-78
2022/08/09 08:42:23;;;;;;;4.50;4.10;;;;;;;27.62;39.52;64865.28;4928581;29;20201;-79
2022/08/09 08:44:56;;;;;;;9.45;4.38;;;;;;;27.73;37.30;64880.00;4929581;29;20235;-80
2022/08/09 08:47:23;;;;;;;4.32;3.95;;;;;;;27.67;35.78;64871.06;4930430;29;20231;-80
2022/08/09 08:49:50;;;;;;;3.70;3.50;;;;;;;27.83;37.33;64885.25;4928977;29;20252;-79
2022/08/09 08:52:19;;;;;;;6.70;4.30;;;;;;;28.14;38.05;64917.81;4928751;29;20257;-79
2022/08/09 08:54:46;;;;;;;4.43;3.97;;;;;;;28.30;37.62;64934.09;4928808;29;20261;-81
2022/08/09 08:57:13;;;;;;;5.68;3.78;;;;;;;28.44;36.80;64948.75;4933211;29;20197;-79
2022/08/09 08:59:41;;;;;;;5.72;4.40;;;;;;;28.47;35.73;64954.53;4928692;29;20226;-78
2022/08/09 09:02:18;;;;;;;5.32;3.72;;;;;;;28.49;36.03;64959.28;4930696;29;20204;-79
2022/08/09 09:04:45;;;;;;;5.28;3.25;;;;;;;28.52;35.42;64961.91;4946955;29;20212;-78
2022/08/09 09:07:14;;;;;;;3.30;3.10;;;;;;;28.57;36.62;64964.53;4935325;29;20252;-78
2022/08/09 09:09:46;;;;;;;5.57;3.65;;;;;;;28.81;36.28;64990.28;4927699;29;20228;-78
2022/08/09 09:12:15;;;;;;;5.75;3.13;;;;;;;28.87;33.32;64996.56;4932109;29;20197;-78
2022/08/09 09:14:44;;;;;;;4.20;3.40;;;;;;;28.43;34.20;64948.25;4935748;29;20233;-80
2022/08/09 09:17:12;;;;;;;3.08;2.88;;;;;;;28.61;35.32;64971.38;4927623;29;20232;-78
2022/08/09 09:19:39;;;;;;;4.50;3.13;;;;;;;28.52;34.48;64962.44;4927323;29;20237;-79
2022/08/09 09:22:09;;;;;;;3.35;3.15;;;;;;;28.70;33.66;64973.47;4927913;29;20202;-79
2022/08/09 09:24:38;;;;;;;3.20;2.90;;;;;;;28.91;33.67;65002.88;4928793;29;20224;-79
2022/08/09 09:27:07;;;;;;;2.50;2.17;;;;;;;28.94;29.32;64995.53;4928518;29;20225;-79
2022/08/09 09:29:36;;;;;;;5.43;2.15;;;;;;;29.12;29.86;65022.84;4929329;29;20221;-79
2022/08/09 09:32:05;;;;;;;3.03;1.77;;;;;;;29.31;28.54;65045.44;4928785;29;20209;-79
2022/08/09 09:34:32;;;;;;;3.65;2.03;;;;;;;29.47;28.53;65059.09;4928407;29;20277;-79
2022/08/09 09:37:01;;;;;;;6.40;2.63;;;;;;;29.67;29.50;65079.59;4928683;29;20213;-79
2022/08/09 09:39:30;;;;;;;2.10;2.00;;;;;;;29.82;29.10;65101.16;4928508;29;20268;-80
2022/08/09 09:41:58;;;;;;;2.50;2.40;;;;;;;29.95;29.45;65106.94;4928880;29;20205;-79
2022/08/09 09:44:28;;;;;;;3.20;2.60;;;;;;;30.13;29.96;65133.75;4929014;29;20542;-78
2022/08/09 09:46:56;;;;;;;2.30;2.10;;;;;;;30.15;25.71;65130.09;4928377;29;20550;-80
2022/08/09 09:49:25;;;;;;;4.38;2.35;;;;;;;29.98;26.57;65115.34;4927981;29;20276;-76
2022/08/09 09:52:02;;;;;;;4.93;2.08;;;;;;;29.97;26.81;65111.16;4929094;29;20490;-80
2022/08/09 09:54:36;;;;;;;2.80;2.22;;;;;;;30.13;28.39;65130.59;4928209;29;20260;-79
2022/08/09 09:57:13;;;;;;;2.33;2.15;;;;;;;30.10;28.05;65119.56;4934061;29;20209;-78
2022/08/09 09:59:40;;;;;;;3.92;2.42;;;;;;;29.89;27.48;65100.63;4927625;29;20576;-80
2022/08/09 10:02:08;;;;;;;2.88;2.05;;;;;;;29.67;27.41;65080.13;4929046;29;20315;-78
2022/08/09 10:04:36;;;;;;;3.38;2.65;;;;;;;29.61;27.80;65073.28;4927146;29;20272;-77
2022/08/09 10:07:04;;;;;;;2.45;2.25;;;;;;;29.94;28.90;65105.38;4929516;29;20612;-79
2022/08/09 10:09:47;;;;;;;3.05;2.17;;;;;;;30.54;29.33;65174.28;4944674;29;20227;-80
2022/08/09 10:12:25;;;;;;;2.53;2.15;;;;;;;31.02;26.32;65224.25;4948360;29;20244;-79
2022/08/09 10:14:52;;;;;;;3.60;2.20;;;;;;;31.19;26.68;65242.13;4946681;29;20220;-79
2022/08/09 10:17:20;;;;;;;2.65;2.35;;;;;;;31.27;25.60;65245.28;4937933;29;20201;-77
2022/08/09 10:19:49;;;;;;;3.53;2.17;;;;;;;31.38;25.55;65253.72;4930808;29;20248;-78
2022/08/09 10:22:15;;;;;;;3.28;2.30;;;;;;;30.77;27.23;65197.41;4930379;29;20291;-79
2022/08/09 10:24:42;;;;;;;2.55;2.35;;;;;;;30.79;26.99;65191.63;4932596;29;20229;-78
2022/08/09 10:27:11;;;;;;;2.88;2.42;;;;;;;30.54;25.85;65173.75;4947734;29;20197;-78
2022/08/09 10:29:38;;;;;;;4.35;2.45;;;;;;;29.72;26.79;65082.78;4949084;29;20260;-76
2022/08/09 10:32:06;;;;;;;2.40;2.20;;;;;;;29.32;27.22;65041.25;4942232;29;20198;-78
2022/08/09 10:34:34;;;;;;;2.17;1.80;;;;;;;29.69;27.67;65084.88;4934350;29;20232;-78
2022/08/09 10:37:03;;;;;;;3.35;1.98;;;;;;;29.98;28.26;65117.97;4935351;29;20201;-78
2022/08/09 10:39:30;;;;;;;6.07;1.92;;;;;;;30.24;27.35;65136.91;4930997;29;20245;-76
2022/08/09 10:41:57;;;;;;;2.75;1.90;;;;;;;30.18;26.07;65131.13;4930027;29;20204;-78
2022/08/09 10:44:29;;;;;;;1.98;1.83;;;;;;;29.71;25.85;65083.81;4942872;29;20212;-77
2022/08/09 10:47:24;;;;;;;1.73;1.63;;;;;;;29.75;26.90;65088.03;4942977;29;20352;-78
2022/08/09 10:50:03;;;;;;;4.00;2.20;;;;;;;29.95;25.46;65111.66;4951662;29;20234;-79
2022/08/09 10:52:46;;;;;;;2.92;1.80;;;;;;;29.98;25.14;65109.56;4951012;29;20204;-76
2022/08/09 10:55:21;;;;;;;1.70;1.60;;;;;;;29.94;26.33;65110.63;4945014;29;20468;-77
2022/08/09 10:57:48;;;;;;;1.58;1.48;;;;;;;30.17;27.12;65137.44;4949641;29;20232;-78
2022/08/09 11:00:38;;;;;;;2.67;2.00;;;;;;;30.33;26.46;65149.03;4950452;29;20383;-78
2022/08/09 11:03:20;;;;;;;5.85;2.00;;;;;;;30.51;26.90;65167.97;4951581;29;20200;-78
2022/08/09 11:06:19;;;;;;;2.10;2.00;;;;;;;30.63;26.00;65183.22;4950576;29;20201;-77
2022/08/09 11:08:48;;;;;;;1.90;1.80;;;;;;;30.85;25.51;65200.56;4949874;29;20240;-79
2022/08/09 11:11:16;;;;;;;2.15;1.42;;;;;;;30.76;25.95;65194.25;4948382;29;20220;-76
2022/08/09 11:13:43;;;;;;;2.50;1.90;;;;;;;30.42;27.31;65159.03;4933305;29;20542;-80
2022/08/09 11:16:35;;;;;;;2.95;2.17;;;;;;;30.79;27.95;65199.50;4932594;29;20197;-80
2022/08/09 11:19:03;;;;;;;3.70;1.85;;;;;;;31.14;28.54;65228.44;4935438;29;20241;-77
2022/08/09 11:21:50;;;;;;;6.70;2.90;;;;;;;31.29;27.84;65250.00;4929921;29;20213;-77
2022/08/09 11:24:20;;;;;;;3.20;2.35;;;;;;;31.51;27.62;65273.19;4930522;29;20225;-78
2022/08/09 11:26:49;;;;;;;2.38;2.17;;;;;;;31.59;25.42;65276.34;4930245;29;20247;-77
2022/08/09 11:29:49;;;;;;;2.10;1.80;;;;;;;31.49;25.80;65273.19;4929441;29;20318;-79
2022/08/09 11:32:46;;;;;;;2.65;2.45;;;;;;;31.29;25.68;65246.84;4925235;29;20377;-77
2022/08/09 11:35:20;;;;;;;3.40;2.65;;;;;;;30.98;26.20;65217.41;4930774;29;20241;-79
2022/08/09 11:37:49;;;;;;;2.78;2.47;;;;;;;30.72;26.38;65189.50;4931789;29;20197;-79
2022/08/09 11:40:28;;;;;;;3.28;2.90;;;;;;;30.93;26.73;65211.59;4933031;29;20414;-78
2022/08/09 11:42:58;;;;;;;5.20;2.58;;;;;;;30.88;26.62;65209.50;4934446;29;20244;-79